Brockton, Montana
Current Conditions -  °F | °C
As of 10:53 AM on Monday 26 Jan 2015 (Local Time) from KOLF Reporting Station
Clear Clear  
Wind Chill: 37°   Ceiling: Unl
Heat Index: 41°   Visibility: 10mi
Dew Point: 34°   Wind: 6mph
Humidity: 76%   Direction: 240°WSW
Pressure: 29.99"   Gusts: NA
Location:  48.15°N, 104.92°W
Report Text: KOLF 261753Z AUTO 24005KT 10SM CLR 05/01 A2999 RMK AO2 SLP171 T00500011 10050 21022 50004
Loading
Personal Weather Stations






























Interactive Weather Map New forecast layout! Learn more

10-Day Weather Forecast

Advertisements
Track Severe Weather on mobile